Список аэропортов
Фактическая погода:

25 июня, 00:30
Температура: +14°C (+13.3*)
Ветер: сев.-западный 3 м/с
Давление: *760 мм
разорв. обл.
кучево-дождевые 1500 м
слаб. ливневый дождь
Время (МСК)Темп. СВетерВлажностьДавлениеОблачностьОсадки
21:00+16З, 4 м/с77%1012 гПаоблачнодождь
22:00+15З, 3 м/с78%1012 гПаоблачнодождь
23:00+15ЮЗ, 2 м/с79%1013 гПаоблачнодождь
25 июня
00:00+15З, 3 м/с80%1013 гПаоблачнодождь
01:00+14З, 3 м/с81%1013 гПаоблачно
02:00+14З, 3 м/с82%1014 гПаоблачнодождь
03:00+14З, 3 м/с81%1014 гПаоблачнодождь
04:00+13З, 4 м/с81%1015 гПаоблачнодождь
05:00+13З, 3 м/с82%1015 гПаоблачно
06:00+13З, 3 м/с80%1016 гПаоблачно
07:00+14З, 4 м/с76%1016 гПас прояснениями
08:00+15З, 4 м/с67%1016 гПамалооблачно
09:00+16З, 4 м/с60%1016 гПамалооблачно
10:00+17З, 4 м/с56%1017 гПаоблачно
11:00+18З, 4 м/с53%1017 гПас прояснениями
12:00+20З, 4 м/с51%1017 гПаясно
13:00+20З, 3 м/с50%1017 гПаясно
14:00+21З, 3 м/с48%1018 гПаоблачно
15:00+22З, 3 м/с47%1018 гПаоблачно
16:00+22З, 3 м/с46%1018 гПаясно
17:00+22З, 2 м/с45%1018 гПаоблачно
18:00+22З, 2 м/с45%1018 гПаоблачно
19:00+22З, 1 м/с48%1018 гПаоблачно
20:00+21З, 1 м/с48%1018 гПаоблачно
21:00+18ЮЗ, 1 м/с61%1019 гПамалооблачно
22:00+16ЮЗ, 1 м/с66%1019 гПаясно
23:00+15ЮЗ, 1 м/с70%1020 гПаясно
26 июня
00:00+14ЮЗ, 1 м/с74%1020 гПаясно
01:00+13ЮЗ, 1 м/с79%1021 гПаясно
02:00+12ЮЗ, 1 м/с81%1021 гПаясно
03:00+11ЮЗ, 1 м/с86%1021 гПаясно
04:00+10З, 1 м/с89%1022 гПас прояснениями
05:00+11З, 1 м/с85%1022 гПамалооблачно
06:00+13З, 1 м/с80%1022 гПаясно
07:00+16З, 1 м/с75%1022 гПас прояснениями
08:00+20СЗ, 1 м/с55%1022 гПамалооблачно
09:00+22С, 2 м/с45%1022 гПас прояснениями
10:00+23С, 2 м/с39%1023 гПаоблачно
11:00+23С, 2 м/с38%1022 гПаясно
12:00+24С, 2 м/с36%1022 гПаясно
13:00+25С, 2 м/с35%1023 гПаоблачно
14:00+25С, 2 м/с34%1022 гПаоблачно
15:00+25С, 3 м/с34%1022 гПаоблачно
16:00+26С, 3 м/с33%1022 гПаоблачно
17:00+26С, 3 м/с33%1022 гПаоблачно
18:00+25С, 4 м/с34%1022 гПаясно
19:00+25С, 3 м/с33%1021 гПаясно
20:00+23С, 3 м/с40%1022 гПамалооблачно
21:00+21С, 2 м/с52%1022 гПаясно